Terminal Aerodrome Forecast
Issued by NWS Pocatello, ID

Home | Current Version | Previous Version | Text Only | Print | Product List | Glossary On
Versions: 1 2 3 4 5 6 7 8 9 10 11 12 13 14 15 16 17 18 19 20 21 22
713
FTUS45 KPIH 211120
TAFPIH
TAF
KPIH 211120Z 2112/2212 VRB05KT P6SM VCSH SCT020 OVC035
      TEMPO 2112/2115 4SM -SHSN BR BKN020 OVC030
     FM211600 24012G22KT P6SM BKN015 OVC030
     FM220100 22011KT P6SM SCT015 BKN045
     FM221000 20005KT 6SM BR BKN015=

USA.gov is the U.S. government's official web portal to all federal, state and local government web resources and services.